sensor_id;sensor_type;location;lat;lon;timestamp;P1;durP1;ratioP1;P2;durP2;ratioP2
68178;SDS011;54998;42.656;23.382;2023-03-14T00:01:57;8.70;;;3.88;;
68178;SDS011;54998;42.656;23.382;2023-03-14T00:04:23;10.00;;;4.10;;
68178;SDS011;54998;42.656;23.382;2023-03-14T00:06:48;9.40;;;4.22;;
68178;SDS011;54998;42.656;23.382;2023-03-14T00:09:14;6.68;;;2.97;;
68178;SDS011;54998;42.656;23.382;2023-03-14T00:11:40;4.95;;;2.90;;
68178;SDS011;54998;42.656;23.382;2023-03-14T00:14:05;4.70;;;2.13;;
68178;SDS011;54998;42.656;23.382;2023-03-14T00:16:31;8.23;;;3.83;;
68178;SDS011;54998;42.656;23.382;2023-03-14T00:18:58;6.95;;;4.03;;
68178;SDS011;54998;42.656;23.382;2023-03-14T00:21:24;8.30;;;4.68;;
68178;SDS011;54998;42.656;23.382;2023-03-14T00:23:49;7.55;;;4.13;;
68178;SDS011;54998;42.656;23.382;2023-03-14T00:26:15;7.20;;;4.00;;
68178;SDS011;54998;42.656;23.382;2023-03-14T00:28:42;7.07;;;3.75;;
68178;SDS011;54998;42.656;23.382;2023-03-14T00:31:09;6.35;;;3.70;;
68178;SDS011;54998;42.656;23.382;2023-03-14T00:33:37;6.60;;;3.28;;
68178;SDS011;54998;42.656;23.382;2023-03-14T00:36:03;7.78;;;3.15;;
68178;SDS011;54998;42.656;23.382;2023-03-14T00:38:31;7.03;;;3.72;;
68178;SDS011;54998;42.656;23.382;2023-03-14T00:40:58;7.88;;;4.32;;
68178;SDS011;54998;42.656;23.382;2023-03-14T00:43:23;7.15;;;4.00;;
68178;SDS011;54998;42.656;23.382;2023-03-14T00:45:49;7.85;;;4.80;;
68178;SDS011;54998;42.656;23.382;2023-03-14T00:48:16;12.88;;;4.03;;
68178;SDS011;54998;42.656;23.382;2023-03-14T00:50:42;9.65;;;4.57;;
68178;SDS011;54998;42.656;23.382;2023-03-14T00:53:07;8.05;;;4.20;;
68178;SDS011;54998;42.656;23.382;2023-03-14T00:55:36;8.32;;;5.07;;
68178;SDS011;54998;42.656;23.382;2023-03-14T00:58:02;8.93;;;4.25;;
68178;SDS011;54998;42.656;23.382;2023-03-14T01:00:28;7.53;;;4.57;;
68178;SDS011;54998;42.656;23.382;2023-03-14T01:02:53;7.28;;;4.32;;
68178;SDS011;54998;42.656;23.382;2023-03-14T01:05:18;13.00;;;6.00;;
68178;SDS011;54998;42.656;23.382;2023-03-14T01:07:44;10.40;;;5.75;;
68178;SDS011;54998;42.656;23.382;2023-03-14T01:10:09;11.70;;;6.03;;
68178;SDS011;54998;42.656;23.382;2023-03-14T01:12:35;14.95;;;6.78;;
68178;SDS011;54998;42.656;23.382;2023-03-14T01:15:00;11.68;;;5.15;;
68178;SDS011;54998;42.656;23.382;2023-03-14T01:17:26;12.82;;;6.15;;
68178;SDS011;54998;42.656;23.382;2023-03-14T01:19:51;10.35;;;4.53;;
68178;SDS011;54998;42.656;23.382;2023-03-14T01:22:17;11.10;;;4.68;;
68178;SDS011;54998;42.656;23.382;2023-03-14T01:24:42;9.68;;;5.15;;
68178;SDS011;54998;42.656;23.382;2023-03-14T01:27:07;8.55;;;4.35;;
68178;SDS011;54998;42.656;23.382;2023-03-14T01:29:33;7.18;;;3.92;;
68178;SDS011;54998;42.656;23.382;2023-03-14T01:31:58;8.07;;;3.92;;
68178;SDS011;54998;42.656;23.382;2023-03-14T01:34:23;9.10;;;3.78;;
68178;SDS011;54998;42.656;23.382;2023-03-14T01:36:49;6.65;;;3.00;;
68178;SDS011;54998;42.656;23.382;2023-03-14T01:39:14;5.55;;;3.08;;
68178;SDS011;54998;42.656;23.382;2023-03-14T01:41:40;6.10;;;3.70;;
68178;SDS011;54998;42.656;23.382;2023-03-14T01:44:10;7.15;;;3.50;;
68178;SDS011;54998;42.656;23.382;2023-03-14T01:49:11;8.20;;;4.28;;
68178;SDS011;54998;42.656;23.382;2023-03-14T01:51:59;10.25;;;4.43;;
68178;SDS011;54998;42.656;23.382;2023-03-14T01:57:16;7.97;;;4.20;;
68178;SDS011;54998;42.656;23.382;2023-03-14T01:59:52;8.63;;;4.30;;
68178;SDS011;54998;42.656;23.382;2023-03-14T02:02:28;7.82;;;3.70;;
68178;SDS011;54998;42.656;23.382;2023-03-14T02:04:55;10.20;;;4.30;;
68178;SDS011;54998;42.656;23.382;2023-03-14T02:10:25;7.68;;;4.30;;
68178;SDS011;54998;42.656;23.382;2023-03-14T02:12:54;7.18;;;4.13;;
68178;SDS011;54998;42.656;23.382;2023-03-14T02:15:22;7.70;;;3.97;;
68178;SDS011;54998;42.656;23.382;2023-03-14T02:17:48;11.93;;;4.57;;
68178;SDS011;54998;42.656;23.382;2023-03-14T02:23:08;8.98;;;4.60;;
68178;SDS011;54998;42.656;23.382;2023-03-14T02:28:10;11.85;;;6.43;;
68178;SDS011;54998;42.656;23.382;2023-03-14T02:30:37;16.10;;;7.90;;
68178;SDS011;54998;42.656;23.382;2023-03-14T02:33:04;18.77;;;8.63;;
68178;SDS011;54998;42.656;23.382;2023-03-14T02:38:33;15.93;;;8.60;;
68178;SDS011;54998;42.656;23.382;2023-03-14T02:41:03;17.02;;;7.68;;
68178;SDS011;54998;42.656;23.382;2023-03-14T02:43:29;16.67;;;7.78;;
68178;SDS011;54998;42.656;23.382;2023-03-14T02:45:54;15.15;;;7.78;;
68178;SDS011;54998;42.656;23.382;2023-03-14T02:48:21;19.00;;;8.15;;
68178;SDS011;54998;42.656;23.382;2023-03-14T02:50:56;18.75;;;9.20;;
68178;SDS011;54998;42.656;23.382;2023-03-14T02:53:28;19.90;;;9.27;;
68178;SDS011;54998;42.656;23.382;2023-03-14T02:55:59;21.65;;;10.07;;
68178;SDS011;54998;42.656;23.382;2023-03-14T02:58:25;20.08;;;10.32;;
68178;SDS011;54998;42.656;23.382;2023-03-14T03:00:52;20.10;;;9.32;;
68178;SDS011;54998;42.656;23.382;2023-03-14T03:03:18;16.55;;;8.27;;
68178;SDS011;54998;42.656;23.382;2023-03-14T03:05:47;20.92;;;10.23;;
68178;SDS011;54998;42.656;23.382;2023-03-14T03:08:15;21.75;;;10.25;;
68178;SDS011;54998;42.656;23.382;2023-03-14T03:10:40;15.25;;;6.88;;
68178;SDS011;54998;42.656;23.382;2023-03-14T03:13:06;19.52;;;8.38;;
68178;SDS011;54998;42.656;23.382;2023-03-14T03:15:31;19.77;;;10.07;;
68178;SDS011;54998;42.656;23.382;2023-03-14T03:17:56;19.45;;;9.98;;
68178;SDS011;54998;42.656;23.382;2023-03-14T03:20:22;23.27;;;9.00;;
68178;SDS011;54998;42.656;23.382;2023-03-14T03:22:47;21.90;;;9.45;;
68178;SDS011;54998;42.656;23.382;2023-03-14T03:25:14;17.83;;;8.98;;
68178;SDS011;54998;42.656;23.382;2023-03-14T03:27:40;19.05;;;10.05;;
68178;SDS011;54998;42.656;23.382;2023-03-14T03:30:06;21.00;;;9.73;;
68178;SDS011;54998;42.656;23.382;2023-03-14T03:32:32;17.65;;;9.65;;
68178;SDS011;54998;42.656;23.382;2023-03-14T03:34:57;24.05;;;9.88;;
68178;SDS011;54998;42.656;23.382;2023-03-14T03:37:23;18.80;;;8.38;;
68178;SDS011;54998;42.656;23.382;2023-03-14T03:39:52;21.63;;;10.13;;
68178;SDS011;54998;42.656;23.382;2023-03-14T03:42:17;21.23;;;10.40;;
68178;SDS011;54998;42.656;23.382;2023-03-14T03:44:43;26.48;;;10.63;;
68178;SDS011;54998;42.656;23.382;2023-03-14T03:47:09;27.25;;;11.60;;
68178;SDS011;54998;42.656;23.382;2023-03-14T03:49:35;23.85;;;11.13;;
68178;SDS011;54998;42.656;23.382;2023-03-14T03:52:00;26.30;;;11.07;;
68178;SDS011;54998;42.656;23.382;2023-03-14T03:54:26;24.55;;;10.82;;
68178;SDS011;54998;42.656;23.382;2023-03-14T03:56:52;22.67;;;10.68;;
68178;SDS011;54998;42.656;23.382;2023-03-14T03:59:17;27.02;;;14.70;;
68178;SDS011;54998;42.656;23.382;2023-03-14T04:01:43;25.33;;;11.32;;
68178;SDS011;54998;42.656;23.382;2023-03-14T04:04:09;26.88;;;11.50;;
68178;SDS011;54998;42.656;23.382;2023-03-14T04:06:34;24.55;;;12.32;;
68178;SDS011;54998;42.656;23.382;2023-03-14T04:09:00;22.23;;;10.23;;
68178;SDS011;54998;42.656;23.382;2023-03-14T04:11:25;26.92;;;10.25;;
68178;SDS011;54998;42.656;23.382;2023-03-14T04:13:51;27.88;;;10.57;;
68178;SDS011;54998;42.656;23.382;2023-03-14T04:16:17;22.23;;;12.40;;
68178;SDS011;54998;42.656;23.382;2023-03-14T04:18:45;20.75;;;11.63;;
68178;SDS011;54998;42.656;23.382;2023-03-14T04:21:10;29.77;;;11.75;;
68178;SDS011;54998;42.656;23.382;2023-03-14T04:23:35;31.38;;;12.27;;
68178;SDS011;54998;42.656;23.382;2023-03-14T04:26:01;21.33;;;9.98;;
68178;SDS011;54998;42.656;23.382;2023-03-14T04:28:27;20.48;;;9.98;;
68178;SDS011;54998;42.656;23.382;2023-03-14T04:30:52;19.75;;;9.07;;
68178;SDS011;54998;42.656;23.382;2023-03-14T04:33:18;18.35;;;9.20;;
68178;SDS011;54998;42.656;23.382;2023-03-14T04:35:43;24.92;;;10.80;;
68178;SDS011;54998;42.656;23.382;2023-03-14T04:38:09;22.75;;;9.95;;
68178;SDS011;54998;42.656;23.382;2023-03-14T04:40:38;26.30;;;10.82;;
68178;SDS011;54998;42.656;23.382;2023-03-14T04:43:05;23.33;;;11.13;;
68178;SDS011;54998;42.656;23.382;2023-03-14T04:45:31;27.35;;;13.55;;
68178;SDS011;54998;42.656;23.382;2023-03-14T04:47:57;24.20;;;10.68;;
68178;SDS011;54998;42.656;23.382;2023-03-14T04:50:22;30.17;;;12.57;;
68178;SDS011;54998;42.656;23.382;2023-03-14T04:52:47;33.88;;;14.88;;
68178;SDS011;54998;42.656;23.382;2023-03-14T04:55:13;24.60;;;12.32;;
68178;SDS011;54998;42.656;23.382;2023-03-14T04:57:38;30.40;;;12.68;;
68178;SDS011;54998;42.656;23.382;2023-03-14T05:00:04;28.88;;;11.77;;
68178;SDS011;54998;42.656;23.382;2023-03-14T05:02:31;26.42;;;11.90;;
68178;SDS011;54998;42.656;23.382;2023-03-14T05:04:57;21.05;;;11.50;;
68178;SDS011;54998;42.656;23.382;2023-03-14T05:07:22;23.80;;;12.05;;
68178;SDS011;54998;42.656;23.382;2023-03-14T05:09:47;29.95;;;11.68;;
68178;SDS011;54998;42.656;23.382;2023-03-14T05:12:13;27.30;;;11.23;;
68178;SDS011;54998;42.656;23.382;2023-03-14T05:14:38;25.58;;;12.23;;
68178;SDS011;54998;42.656;23.382;2023-03-14T05:17:04;38.40;;;13.48;;
68178;SDS011;54998;42.656;23.382;2023-03-14T05:19:30;31.48;;;11.30;;
68178;SDS011;54998;42.656;23.382;2023-03-14T05:21:56;27.15;;;13.65;;
68178;SDS011;54998;42.656;23.382;2023-03-14T05:24:21;25.05;;;11.88;;
68178;SDS011;54998;42.656;23.382;2023-03-14T05:26:47;23.35;;;10.77;;
68178;SDS011;54998;42.656;23.382;2023-03-14T05:29:12;18.83;;;10.45;;
68178;SDS011;54998;42.656;23.382;2023-03-14T05:31:37;19.20;;;8.00;;
68178;SDS011;54998;42.656;23.382;2023-03-14T05:34:03;14.45;;;9.18;;
68178;SDS011;54998;42.656;23.382;2023-03-14T05:36:28;18.45;;;8.65;;
68178;SDS011;54998;42.656;23.382;2023-03-14T05:38:54;15.35;;;9.40;;
68178;SDS011;54998;42.656;23.382;2023-03-14T05:41:19;9.07;;;5.10;;
68178;SDS011;54998;42.656;23.382;2023-03-14T05:43:44;9.95;;;5.85;;
68178;SDS011;54998;42.656;23.382;2023-03-14T05:46:10;9.27;;;5.70;;
68178;SDS011;54998;42.656;23.382;2023-03-14T05:48:35;7.88;;;4.60;;
68178;SDS011;54998;42.656;23.382;2023-03-14T05:51:01;9.98;;;5.38;;
68178;SDS011;54998;42.656;23.382;2023-03-14T05:53:27;11.20;;;6.13;;
68178;SDS011;54998;42.656;23.382;2023-03-14T05:55:54;13.93;;;6.03;;
68178;SDS011;54998;42.656;23.382;2023-03-14T05:58:20;9.82;;;5.32;;
68178;SDS011;54998;42.656;23.382;2023-03-14T06:00:46;10.73;;;5.95;;
68178;SDS011;54998;42.656;23.382;2023-03-14T06:03:11;9.40;;;5.50;;
68178;SDS011;54998;42.656;23.382;2023-03-14T06:05:37;8.30;;;5.55;;
68178;SDS011;54998;42.656;23.382;2023-03-14T06:08:02;11.75;;;5.57;;
68178;SDS011;54998;42.656;23.382;2023-03-14T06:10:28;15.73;;;7.25;;
68178;SDS011;54998;42.656;23.382;2023-03-14T06:12:53;11.63;;;6.18;;
68178;SDS011;54998;42.656;23.382;2023-03-14T06:15:19;12.57;;;6.93;;
68178;SDS011;54998;42.656;23.382;2023-03-14T06:17:44;13.80;;;6.78;;
68178;SDS011;54998;42.656;23.382;2023-03-14T06:20:10;11.55;;;6.38;;
68178;SDS011;54998;42.656;23.382;2023-03-14T06:22:36;11.13;;;6.88;;
68178;SDS011;54998;42.656;23.382;2023-03-14T06:25:01;9.20;;;6.65;;
68178;SDS011;54998;42.656;23.382;2023-03-14T06:27:28;10.73;;;6.28;;
68178;SDS011;54998;42.656;23.382;2023-03-14T06:29:54;11.95;;;7.68;;
68178;SDS011;54998;42.656;23.382;2023-03-14T06:32:19;10.30;;;6.40;;
68178;SDS011;54998;42.656;23.382;2023-03-14T06:34:45;8.70;;;5.97;;
68178;SDS011;54998;42.656;23.382;2023-03-14T06:37:11;12.60;;;6.68;;
68178;SDS011;54998;42.656;23.382;2023-03-14T06:39:36;8.82;;;6.25;;
68178;SDS011;54998;42.656;23.382;2023-03-14T06:42:03;11.25;;;6.72;;
68178;SDS011;54998;42.656;23.382;2023-03-14T06:44:29;8.32;;;5.88;;
68178;SDS011;54998;42.656;23.382;2023-03-14T06:46:54;11.05;;;6.43;;
68178;SDS011;54998;42.656;23.382;2023-03-14T06:49:19;10.02;;;6.22;;
68178;SDS011;54998;42.656;23.382;2023-03-14T06:51:45;9.50;;;6.47;;
68178;SDS011;54998;42.656;23.382;2023-03-14T06:54:10;10.85;;;6.85;;
68178;SDS011;54998;42.656;23.382;2023-03-14T06:56:36;8.90;;;6.68;;
68178;SDS011;54998;42.656;23.382;2023-03-14T06:59:01;11.68;;;7.57;;
68178;SDS011;54998;42.656;23.382;2023-03-14T07:01:27;11.82;;;8.23;;
68178;SDS011;54998;42.656;23.382;2023-03-14T07:03:54;9.90;;;6.47;;
68178;SDS011;54998;42.656;23.382;2023-03-14T07:06:20;12.95;;;7.47;;
68178;SDS011;54998;42.656;23.382;2023-03-14T07:08:46;17.30;;;8.35;;
68178;SDS011;54998;42.656;23.382;2023-03-14T07:11:12;18.33;;;9.40;;
68178;SDS011;54998;42.656;23.382;2023-03-14T07:13:37;13.98;;;9.23;;
68178;SDS011;54998;42.656;23.382;2023-03-14T07:16:03;15.45;;;8.88;;
68178;SDS011;54998;42.656;23.382;2023-03-14T07:18:29;13.45;;;8.60;;
68178;SDS011;54998;42.656;23.382;2023-03-14T07:20:55;10.90;;;7.47;;
68178;SDS011;54998;42.656;23.382;2023-03-14T07:23:20;14.23;;;8.48;;
68178;SDS011;54998;42.656;23.382;2023-03-14T07:25:46;16.08;;;9.05;;
68178;SDS011;54998;42.656;23.382;2023-03-14T07:28:11;16.52;;;8.90;;
68178;SDS011;54998;42.656;23.382;2023-03-14T07:30:36;15.10;;;8.60;;
68178;SDS011;54998;42.656;23.382;2023-03-14T07:33:02;17.02;;;9.48;;
68178;SDS011;54998;42.656;23.382;2023-03-14T07:35:27;18.70;;;11.10;;
68178;SDS011;54998;42.656;23.382;2023-03-14T07:37:53;21.33;;;12.43;;
68178;SDS011;54998;42.656;23.382;2023-03-14T07:40:19;17.55;;;11.55;;
68178;SDS011;54998;42.656;23.382;2023-03-14T07:42:44;15.95;;;10.65;;
68178;SDS011;54998;42.656;23.382;2023-03-14T07:45:10;15.55;;;9.50;;
68178;SDS011;54998;42.656;23.382;2023-03-14T07:47:36;14.15;;;9.02;;
68178;SDS011;54998;42.656;23.382;2023-03-14T07:50:02;14.57;;;9.13;;
68178;SDS011;54998;42.656;23.382;2023-03-14T07:52:28;17.58;;;10.32;;
68178;SDS011;54998;42.656;23.382;2023-03-14T07:54:54;19.33;;;11.90;;
68178;SDS011;54998;42.656;23.382;2023-03-14T07:57:19;17.95;;;11.57;;
68178;SDS011;54998;42.656;23.382;2023-03-14T07:59:45;27.85;;;12.82;;
68178;SDS011;54998;42.656;23.382;2023-03-14T08:02:10;17.38;;;11.75;;
68178;SDS011;54998;42.656;23.382;2023-03-14T08:04:38;15.18;;;11.07;;
68178;SDS011;54998;42.656;23.382;2023-03-14T08:07:04;15.50;;;10.73;;
68178;SDS011;54998;42.656;23.382;2023-03-14T08:09:30;20.83;;;10.90;;
68178;SDS011;54998;42.656;23.382;2023-03-14T08:11:55;16.38;;;9.48;;
68178;SDS011;54998;42.656;23.382;2023-03-14T08:14:20;16.92;;;10.23;;
68178;SDS011;54998;42.656;23.382;2023-03-14T08:16:48;15.55;;;9.23;;
68178;SDS011;54998;42.656;23.382;2023-03-14T08:19:14;12.43;;;8.93;;
68178;SDS011;54998;42.656;23.382;2023-03-14T08:21:39;18.85;;;9.57;;
68178;SDS011;54998;42.656;23.382;2023-03-14T08:24:05;14.68;;;9.02;;
68178;SDS011;54998;42.656;23.382;2023-03-14T08:26:31;15.82;;;8.70;;
68178;SDS011;54998;42.656;23.382;2023-03-14T08:28:56;15.35;;;8.93;;
68178;SDS011;54998;42.656;23.382;2023-03-14T08:31:22;15.32;;;9.35;;
68178;SDS011;54998;42.656;23.382;2023-03-14T08:33:47;16.67;;;9.45;;
68178;SDS011;54998;42.656;23.382;2023-03-14T08:36:12;13.95;;;8.98;;
68178;SDS011;54998;42.656;23.382;2023-03-14T08:38:38;13.82;;;8.52;;
68178;SDS011;54998;42.656;23.382;2023-03-14T08:41:04;13.00;;;8.93;;
68178;SDS011;54998;42.656;23.382;2023-03-14T08:43:30;15.15;;;8.38;;
68178;SDS011;54998;42.656;23.382;2023-03-14T08:45:59;12.98;;;7.93;;
68178;SDS011;54998;42.656;23.382;2023-03-14T08:48:25;15.95;;;9.32;;
68178;SDS011;54998;42.656;23.382;2023-03-14T08:53:17;12.07;;;7.83;;
68178;SDS011;54998;42.656;23.382;2023-03-14T08:55:43;14.45;;;8.00;;
68178;SDS011;54998;42.656;23.382;2023-03-14T08:58:08;12.60;;;8.98;;
68178;SDS011;54998;42.656;23.382;2023-03-14T09:00:33;12.18;;;7.90;;
68178;SDS011;54998;42.656;23.382;2023-03-14T09:16:17;12.40;;;7.22;;
68178;SDS011;54998;42.656;23.382;2023-03-14T09:18:43;14.30;;;8.00;;
68178;SDS011;54998;42.656;23.382;2023-03-14T09:21:08;14.57;;;7.72;;
68178;SDS011;54998;42.656;23.382;2023-03-14T09:23:33;11.43;;;7.65;;
68178;SDS011;54998;42.656;23.382;2023-03-14T09:25:59;11.40;;;8.45;;
68178;SDS011;54998;42.656;23.382;2023-03-14T09:28:25;13.90;;;8.05;;
68178;SDS011;54998;42.656;23.382;2023-03-14T09:30:51;12.10;;;7.18;;
68178;SDS011;54998;42.656;23.382;2023-03-14T09:33:16;15.68;;;8.88;;
68178;SDS011;54998;42.656;23.382;2023-03-14T09:38:08;13.48;;;8.07;;
68178;SDS011;54998;42.656;23.382;2023-03-14T09:40:34;12.38;;;7.80;;
68178;SDS011;54998;42.656;23.382;2023-03-14T09:43:00;15.15;;;8.05;;
68178;SDS011;54998;42.656;23.382;2023-03-14T09:45:27;11.57;;;7.85;;
68178;SDS011;54998;42.656;23.382;2023-03-14T09:47:56;12.07;;;6.97;;
68178;SDS011;54998;42.656;23.382;2023-03-14T09:50:23;9.98;;;6.35;;
68178;SDS011;54998;42.656;23.382;2023-03-14T09:52:51;10.35;;;6.57;;
68178;SDS011;54998;42.656;23.382;2023-03-14T09:55:21;10.45;;;6.22;;
68178;SDS011;54998;42.656;23.382;2023-03-14T10:00:14;10.07;;;6.55;;
68178;SDS011;54998;42.656;23.382;2023-03-14T10:02:45;11.25;;;6.55;;
68178;SDS011;54998;42.656;23.382;2023-03-14T10:05:17;9.30;;;5.93;;
68178;SDS011;54998;42.656;23.382;2023-03-14T10:07:45;9.45;;;6.03;;
68178;SDS011;54998;42.656;23.382;2023-03-14T10:10:11;9.20;;;5.70;;
68178;SDS011;54998;42.656;23.382;2023-03-14T10:12:41;10.82;;;6.10;;
68178;SDS011;54998;42.656;23.382;2023-03-14T10:15:11;11.05;;;6.30;;
68178;SDS011;54998;42.656;23.382;2023-03-14T10:17:44;9.40;;;5.63;;
68178;SDS011;54998;42.656;23.382;2023-03-14T10:20:30;8.80;;;5.28;;
68178;SDS011;54998;42.656;23.382;2023-03-14T10:23:01;7.60;;;5.30;;
68178;SDS011;54998;42.656;23.382;2023-03-14T10:28:37;7.63;;;5.22;;
68178;SDS011;54998;42.656;23.382;2023-03-14T10:31:16;8.80;;;4.97;;
68178;SDS011;54998;42.656;23.382;2023-03-14T10:33:42;11.82;;;5.00;;
68178;SDS011;54998;42.656;23.382;2023-03-14T10:36:23;8.93;;;5.00;;
68178;SDS011;54998;42.656;23.382;2023-03-14T10:38:56;6.35;;;4.28;;
68178;SDS011;54998;42.656;23.382;2023-03-14T10:41:30;7.65;;;4.53;;
68178;SDS011;54998;42.656;23.382;2023-03-14T10:43:58;6.38;;;4.38;;
68178;SDS011;54998;42.656;23.382;2023-03-14T10:46:26;7.53;;;4.43;;
68178;SDS011;54998;42.656;23.382;2023-03-14T10:48:55;6.72;;;4.43;;
68178;SDS011;54998;42.656;23.382;2023-03-14T10:51:27;5.90;;;3.53;;
68178;SDS011;54998;42.656;23.382;2023-03-14T10:54:02;5.60;;;3.63;;
68178;SDS011;54998;42.656;23.382;2023-03-14T10:56:36;9.13;;;3.88;;
68178;SDS011;54998;42.656;23.382;2023-03-14T10:59:02;7.40;;;4.55;;
68178;SDS011;54998;42.656;23.382;2023-03-14T11:07:23;5.80;;;3.70;;
68178;SDS011;54998;42.656;23.382;2023-03-14T11:10:02;7.45;;;4.00;;
68178;SDS011;54998;42.656;23.382;2023-03-14T11:18:44;6.32;;;3.72;;
68178;SDS011;54998;42.656;23.382;2023-03-14T11:27:18;5.78;;;3.67;;
68178;SDS011;54998;42.656;23.382;2023-03-14T11:29:51;4.70;;;3.35;;
68178;SDS011;54998;42.656;23.382;2023-03-14T11:35:33;6.38;;;3.63;;
68178;SDS011;54998;42.656;23.382;2023-03-14T11:38:05;6.10;;;3.25;;
68178;SDS011;54998;42.656;23.382;2023-03-14T11:40:34;5.22;;;3.10;;
68178;SDS011;54998;42.656;23.382;2023-03-14T11:43:06;5.82;;;3.42;;
68178;SDS011;54998;42.656;23.382;2023-03-14T11:45:38;8.63;;;3.53;;
68178;SDS011;54998;42.656;23.382;2023-03-14T11:48:09;5.35;;;3.63;;
68178;SDS011;54998;42.656;23.382;2023-03-14T11:50:36;5.20;;;3.15;;
68178;SDS011;54998;42.656;23.382;2023-03-14T11:53:14;9.18;;;4.30;;
68178;SDS011;54998;42.656;23.382;2023-03-14T11:55:43;5.38;;;3.33;;
68178;SDS011;54998;42.656;23.382;2023-03-14T11:58:27;6.03;;;2.67;;
68178;SDS011;54998;42.656;23.382;2023-03-14T12:00:56;6.78;;;2.72;;
68178;SDS011;54998;42.656;23.382;2023-03-14T12:09:05;5.22;;;2.80;;
68178;SDS011;54998;42.656;23.382;2023-03-14T12:19:43;3.35;;;2.25;;
68178;SDS011;54998;42.656;23.382;2023-03-14T12:22:26;3.40;;;2.03;;
68178;SDS011;54998;42.656;23.382;2023-03-14T12:25:04;4.43;;;2.08;;
68178;SDS011;54998;42.656;23.382;2023-03-14T12:30:39;5.18;;;2.08;;
68178;SDS011;54998;42.656;23.382;2023-03-14T12:38:00;4.32;;;2.17;;
68178;SDS011;54998;42.656;23.382;2023-03-14T12:40:36;4.78;;;2.10;;
68178;SDS011;54998;42.656;23.382;2023-03-14T12:48:49;2.97;;;1.95;;
68178;SDS011;54998;42.656;23.382;2023-03-14T12:56:51;2.58;;;1.83;;
68178;SDS011;54998;42.656;23.382;2023-03-14T13:04:31;4.93;;;1.90;;
68178;SDS011;54998;42.656;23.382;2023-03-14T13:07:00;5.57;;;2.92;;
68178;SDS011;54998;42.656;23.382;2023-03-14T13:11:54;6.13;;;2.22;;
68178;SDS011;54998;42.656;23.382;2023-03-14T13:14:21;4.45;;;2.10;;
68178;SDS011;54998;42.656;23.382;2023-03-14T13:16:48;6.88;;;2.10;;
68178;SDS011;54998;42.656;23.382;2023-03-14T13:19:18;5.40;;;1.95;;
68178;SDS011;54998;42.656;23.382;2023-03-14T13:21:46;4.90;;;2.47;;
68178;SDS011;54998;42.656;23.382;2023-03-14T13:24:32;5.45;;;1.88;;
68178;SDS011;54998;42.656;23.382;2023-03-14T13:26:59;4.18;;;2.00;;
68178;SDS011;54998;42.656;23.382;2023-03-14T13:29:26;4.07;;;1.98;;
68178;SDS011;54998;42.656;23.382;2023-03-14T13:31:54;4.80;;;2.00;;
68178;SDS011;54998;42.656;23.382;2023-03-14T13:34:24;4.88;;;2.17;;
68178;SDS011;54998;42.656;23.382;2023-03-14T13:36:53;5.95;;;2.10;;
68178;SDS011;54998;42.656;23.382;2023-03-14T13:39:20;3.22;;;1.90;;
68178;SDS011;54998;42.656;23.382;2023-03-14T13:41:49;3.28;;;2.25;;
68178;SDS011;54998;42.656;23.382;2023-03-14T13:44:16;5.25;;;2.42;;
68178;SDS011;54998;42.656;23.382;2023-03-14T13:46:50;5.90;;;1.85;;
68178;SDS011;54998;42.656;23.382;2023-03-14T13:49:19;6.75;;;2.13;;
68178;SDS011;54998;42.656;23.382;2023-03-14T13:51:47;2.40;;;1.50;;
68178;SDS011;54998;42.656;23.382;2023-03-14T13:54:17;3.55;;;2.42;;
68178;SDS011;54998;42.656;23.382;2023-03-14T13:56:44;4.32;;;1.80;;
68178;SDS011;54998;42.656;23.382;2023-03-14T13:59:29;3.03;;;1.98;;
68178;SDS011;54998;42.656;23.382;2023-03-14T14:01:59;2.80;;;1.65;;
68178;SDS011;54998;42.656;23.382;2023-03-14T14:04:28;3.30;;;1.70;;
68178;SDS011;54998;42.656;23.382;2023-03-14T14:06:57;4.55;;;1.70;;
68178;SDS011;54998;42.656;23.382;2023-03-14T14:09:27;2.42;;;1.35;;
68178;SDS011;54998;42.656;23.382;2023-03-14T14:11:56;5.97;;;1.60;;
68178;SDS011;54998;42.656;23.382;2023-03-14T14:14:59;3.00;;;1.83;;
68178;SDS011;54998;42.656;23.382;2023-03-14T14:17:26;3.67;;;1.80;;
68178;SDS011;54998;42.656;23.382;2023-03-14T14:19:56;3.67;;;1.60;;
68178;SDS011;54998;42.656;23.382;2023-03-14T14:22:22;2.90;;;1.80;;
68178;SDS011;54998;42.656;23.382;2023-03-14T14:24:48;3.85;;;1.83;;
68178;SDS011;54998;42.656;23.382;2023-03-14T14:27:14;4.82;;;1.83;;
68178;SDS011;54998;42.656;23.382;2023-03-14T14:29:42;2.33;;;1.30;;
68178;SDS011;54998;42.656;23.382;2023-03-14T14:37:14;1.48;;;1.00;;
68178;SDS011;54998;42.656;23.382;2023-03-14T14:39:54;3.92;;;1.80;;
68178;SDS011;54998;42.656;23.382;2023-03-14T14:42:24;3.13;;;1.80;;
68178;SDS011;54998;42.656;23.382;2023-03-14T14:44:52;4.57;;;1.65;;
68178;SDS011;54998;42.656;23.382;2023-03-14T14:47:19;2.03;;;1.13;;
68178;SDS011;54998;42.656;23.382;2023-03-14T14:49:48;2.60;;;1.35;;
68178;SDS011;54998;42.656;23.382;2023-03-14T14:52:15;5.00;;;1.92;;
68178;SDS011;54998;42.656;23.382;2023-03-14T14:54:43;2.15;;;1.00;;
68178;SDS011;54998;42.656;23.382;2023-03-14T14:57:20;1.85;;;1.05;;
68178;SDS011;54998;42.656;23.382;2023-03-14T14:59:56;2.47;;;1.25;;
68178;SDS011;54998;42.656;23.382;2023-03-14T15:02:35;3.67;;;1.20;;
68178;SDS011;54998;42.656;23.382;2023-03-14T15:05:12;3.30;;;1.23;;
68178;SDS011;54998;42.656;23.382;2023-03-14T15:07:44;2.78;;;0.90;;
68178;SDS011;54998;42.656;23.382;2023-03-14T15:10:14;2.42;;;1.25;;
68178;SDS011;54998;42.656;23.382;2023-03-14T15:12:41;3.97;;;2.50;;
68178;SDS011;54998;42.656;23.382;2023-03-14T15:15:07;3.80;;;1.70;;
68178;SDS011;54998;42.656;23.382;2023-03-14T15:17:33;2.83;;;1.40;;
68178;SDS011;54998;42.656;23.382;2023-03-14T15:20:00;1.83;;;1.27;;
68178;SDS011;54998;42.656;23.382;2023-03-14T15:22:28;1.75;;;0.88;;
68178;SDS011;54998;42.656;23.382;2023-03-14T15:24:54;3.08;;;1.30;;
68178;SDS011;54998;42.656;23.382;2023-03-14T15:27:19;1.58;;;0.93;;
68178;SDS011;54998;42.656;23.382;2023-03-14T15:29:44;2.70;;;1.25;;
68178;SDS011;54998;42.656;23.382;2023-03-14T15:32:11;3.92;;;1.60;;
68178;SDS011;54998;42.656;23.382;2023-03-14T15:34:38;4.03;;;2.05;;
68178;SDS011;54998;42.656;23.382;2023-03-14T15:37:04;6.10;;;2.78;;
68178;SDS011;54998;42.656;23.382;2023-03-14T15:39:33;2.95;;;1.33;;
68178;SDS011;54998;42.656;23.382;2023-03-14T15:41:59;2.58;;;1.35;;
68178;SDS011;54998;42.656;23.382;2023-03-14T15:44:25;2.13;;;1.40;;
68178;SDS011;54998;42.656;23.382;2023-03-14T15:46:50;4.22;;;1.52;;
68178;SDS011;54998;42.656;23.382;2023-03-14T15:49:15;3.95;;;2.33;;
68178;SDS011;54998;42.656;23.382;2023-03-14T15:51:41;4.03;;;1.90;;
68178;SDS011;54998;42.656;23.382;2023-03-14T15:54:06;3.13;;;1.75;;
68178;SDS011;54998;42.656;23.382;2023-03-14T15:56:31;2.30;;;1.25;;
68178;SDS011;54998;42.656;23.382;2023-03-14T15:58:57;3.45;;;1.55;;
68178;SDS011;54998;42.656;23.382;2023-03-14T16:01:22;5.72;;;2.63;;
68178;SDS011;54998;42.656;23.382;2023-03-14T16:03:48;3.13;;;1.77;;
68178;SDS011;54998;42.656;23.382;2023-03-14T16:06:14;2.53;;;1.30;;
68178;SDS011;54998;42.656;23.382;2023-03-14T16:08:40;3.42;;;1.88;;
68178;SDS011;54998;42.656;23.382;2023-03-14T16:11:08;5.15;;;2.70;;
68178;SDS011;54998;42.656;23.382;2023-03-14T16:13:34;3.65;;;1.42;;
68178;SDS011;54998;42.656;23.382;2023-03-14T16:16:03;4.05;;;1.67;;